createdAt,value
2023-04-15T00:00:56.887Z,10.52
2023-04-15T00:03:23.706Z,12.90
2023-04-15T00:05:50.362Z,11.77
2023-04-15T00:10:44.292Z,11.30
2023-04-15T00:13:10.887Z,9.13
2023-04-15T00:15:37.734Z,14.07
2023-04-15T00:18:04.518Z,9.00
2023-04-15T00:20:31.419Z,11.02
2023-04-15T00:22:59.437Z,12.02
2023-04-15T00:25:26.331Z,11.95
2023-04-15T00:27:52.833Z,11.27
2023-04-15T00:32:46.963Z,12.20
2023-04-15T00:35:13.865Z,12.30
2023-04-15T00:37:40.462Z,12.77
2023-04-15T00:40:12.947Z,10.50
2023-04-15T00:42:39.533Z,10.32
2023-04-15T00:45:07.163Z,10.02
2023-04-15T00:47:35.610Z,10.02
2023-04-15T00:50:02.297Z,10.18
2023-04-15T00:52:28.853Z,10.23
2023-04-15T00:57:22.851Z,9.77
2023-04-15T00:59:50.701Z,8.68
2023-04-15T01:02:17.972Z,10.75
2023-04-15T01:04:44.599Z,9.23
2023-04-15T01:09:37.795Z,13.88
2023-04-15T01:12:05.746Z,11.70
2023-04-15T01:14:33.644Z,12.30
2023-04-15T01:17:00.804Z,10.50
2023-04-15T01:19:27.651Z,10.88
2023-04-15T01:21:55.101Z,14.55
2023-04-15T01:24:22.111Z,15.05
2023-04-15T01:26:49.815Z,11.20
2023-04-15T01:29:16.639Z,10.15
2023-04-15T01:31:54.992Z,13.63
2023-04-15T01:34:22.310Z,12.60
2023-04-15T01:36:48.924Z,12.52
2023-04-15T01:39:15.924Z,15.43
2023-04-15T01:41:42.518Z,13.27
2023-04-15T01:44:09.231Z,11.27
2023-04-15T01:46:37.116Z,11.95
2023-04-15T01:49:03.809Z,14.00
2023-04-15T01:51:32.208Z,12.55
2023-04-15T01:53:58.929Z,14.27
2023-04-15T01:56:25.630Z,13.23
2023-04-15T01:58:52.872Z,14.38
2023-04-15T02:01:20.103Z,17.17
2023-04-15T02:03:47.905Z,15.50
2023-04-15T02:06:15.509Z,11.60
2023-04-15T02:08:42.166Z,13.90
2023-04-15T02:11:09.378Z,11.23
2023-04-15T02:13:36.314Z,15.25
2023-04-15T02:16:03.601Z,11.35
2023-04-15T02:18:30.550Z,14.30
2023-04-15T02:20:58.669Z,12.90
2023-04-15T02:23:25.592Z,14.57
2023-04-15T02:25:53.486Z,9.77
2023-04-15T02:28:21.560Z,14.50
2023-04-15T02:30:52.530Z,17.50
2023-04-15T02:33:19.322Z,16.00
2023-04-15T02:38:14.262Z,13.50
2023-04-15T02:40:41.016Z,13.60
2023-04-15T02:45:34.783Z,12.63
2023-04-15T02:48:06.258Z,14.82
2023-04-15T02:50:33.371Z,9.68
2023-04-15T02:53:01.582Z,13.38
2023-04-15T02:55:29.245Z,12.32
2023-04-15T02:57:56.041Z,14.27
2023-04-15T03:00:25.216Z,11.98
2023-04-15T03:02:56.594Z,13.77
2023-04-15T03:05:25.374Z,21.88
2023-04-15T03:07:52.554Z,12.75
2023-04-15T03:10:20.328Z,12.70
2023-04-15T03:12:47.052Z,14.20
2023-04-15T03:15:17.596Z,11.20
2023-04-15T03:17:49.558Z,11.20
2023-04-15T03:20:16.965Z,12.77
2023-04-15T03:22:43.907Z,14.57
2023-04-15T03:25:10.810Z,17.55
2023-04-15T03:27:38.569Z,13.77
2023-04-15T03:30:06.679Z,14.98
2023-04-15T03:32:35.971Z,14.18
2023-04-15T03:35:02.558Z,15.63
2023-04-15T03:39:55.581Z,16.23
2023-04-15T03:42:22.262Z,13.63
2023-04-15T03:44:48.743Z,14.05
2023-04-15T03:49:41.618Z,14.68
2023-04-15T03:54:34.501Z,13.57
2023-04-15T03:59:27.830Z,12.32
2023-04-15T04:04:21.129Z,14.25
2023-04-15T04:06:47.672Z,16.40
2023-04-15T04:11:40.514Z,14.93
2023-04-15T04:16:33.530Z,15.60
2023-04-15T04:19:00.373Z,16.65
2023-04-15T04:21:28.058Z,13.30
2023-04-15T04:23:54.755Z,12.10
2023-04-15T04:26:21.495Z,13.35
2023-04-15T04:28:48.340Z,13.65
2023-04-15T04:31:14.926Z,16.58
2023-04-15T04:33:41.602Z,17.42
2023-04-15T04:36:08.088Z,12.43
2023-04-15T04:41:01.074Z,11.90
2023-04-15T04:45:54.072Z,14.75
2023-04-15T04:50:47.111Z,16.00
2023-04-15T04:55:40.512Z,17.83
2023-04-15T04:58:06.953Z,13.70
2023-04-15T05:03:00.812Z,15.15
2023-04-15T05:05:27.482Z,15.07
2023-04-15T05:10:20.562Z,12.95
2023-04-15T05:15:13.511Z,12.50
2023-04-15T05:20:07.419Z,12.88
2023-04-15T05:22:33.911Z,13.38
2023-04-15T05:27:27.089Z,15.40
2023-04-15T05:29:53.708Z,18.17
2023-04-15T05:32:20.744Z,13.70
2023-04-15T05:34:47.380Z,12.05
2023-04-15T05:39:40.497Z,13.38
2023-04-15T05:42:07.094Z,13.95
2023-04-15T05:44:33.618Z,10.90
2023-04-15T05:49:27.475Z,16.25
2023-04-15T05:51:53.916Z,12.15
2023-04-15T05:56:48.553Z,18.27
2023-04-15T05:59:15.059Z,16.20
2023-04-15T06:04:07.964Z,12.82
2023-04-15T06:06:34.754Z,15.18
2023-04-15T06:09:01.382Z,15.85
2023-04-15T06:11:28.064Z,16.20
2023-04-15T06:16:21.254Z,15.82
2023-04-15T06:18:47.792Z,13.65
2023-04-15T06:21:14.841Z,14.35
2023-04-15T06:23:41.516Z,16.88
2023-04-15T06:26:08.446Z,16.23
2023-04-15T06:28:34.975Z,15.00
2023-04-15T06:33:29.221Z,13.98
2023-04-15T06:35:55.708Z,14.73
2023-04-15T06:40:48.651Z,13.48
2023-04-15T06:45:41.884Z,13.40
2023-04-15T06:50:35.694Z,14.52
2023-04-15T06:53:03.093Z,14.82
2023-04-15T06:55:29.796Z,13.23
2023-04-15T06:57:56.303Z,12.85
2023-04-15T07:02:49.384Z,18.23
2023-04-15T07:07:42.768Z,13.10
2023-04-15T07:10:09.936Z,16.00
2023-04-15T07:12:36.536Z,11.15
2023-04-15T07:17:30.104Z,14.43
2023-04-15T07:19:56.713Z,14.50
2023-04-15T07:24:49.618Z,13.30
2023-04-15T07:29:43.985Z,14.05
2023-04-15T07:32:10.735Z,11.63
2023-04-15T07:34:38.078Z,11.70
2023-04-15T07:37:04.619Z,14.98
2023-04-15T07:41:59.068Z,11.05
2023-04-15T07:44:26.982Z,9.73
2023-04-15T07:46:53.784Z,10.00
2023-04-15T07:49:21.440Z,13.80
2023-04-15T07:51:49.054Z,16.23
2023-04-15T07:54:16.287Z,15.18
2023-04-15T07:56:42.940Z,15.52
2023-04-15T07:59:10.120Z,18.08
2023-04-15T08:01:36.889Z,12.75
2023-04-15T08:04:03.910Z,13.77
2023-04-15T08:06:30.806Z,12.30
2023-04-15T08:08:57.433Z,13.70
2023-04-15T08:11:24.566Z,13.40
2023-04-15T08:13:52.430Z,12.95
2023-04-15T08:16:24.470Z,16.52
2023-04-15T08:18:52.704Z,16.23
2023-04-15T08:21:20.314Z,12.80
2023-04-15T08:23:49.464Z,19.17
2023-04-15T08:26:16.664Z,19.42
2023-04-15T08:28:44.862Z,17.27
2023-04-15T08:31:12.554Z,16.45
2023-04-15T08:33:39.123Z,14.00
2023-04-15T08:38:33.553Z,19.75
2023-04-15T08:41:10.132Z,14.23
2023-04-15T08:43:54.351Z,13.18
2023-04-15T08:46:21.368Z,13.75
2023-04-15T08:48:49.207Z,13.77
2023-04-15T08:51:17.727Z,11.40
2023-04-15T08:53:46.425Z,10.48
2023-04-15T08:56:15.481Z,19.10
2023-04-15T08:58:43.925Z,13.60
2023-04-15T09:01:13.023Z,11.95
2023-04-15T09:03:40.810Z,11.90
2023-04-15T09:06:07.529Z,8.73
2023-04-15T09:08:36.913Z,16.15
2023-04-15T09:11:04.160Z,17.80
2023-04-15T09:13:31.584Z,8.18
2023-04-15T09:15:58.474Z,8.73
2023-04-15T09:18:32.541Z,14.63
2023-04-15T09:21:11.296Z,10.73
2023-04-15T09:23:39.961Z,10.60
2023-04-15T09:26:07.123Z,7.35
2023-04-15T09:28:35.891Z,9.77
2023-04-15T09:31:02.737Z,7.55
2023-04-15T09:33:30.204Z,13.60
2023-04-15T09:36:01.454Z,22.48
2023-04-15T09:38:28.170Z,10.63
2023-04-15T09:40:55.474Z,13.57
2023-04-15T09:43:22.199Z,9.95
2023-04-15T09:45:53.921Z,9.95
2023-04-15T09:48:28.073Z,8.00
2023-04-15T09:50:58.428Z,9.27
2023-04-15T09:53:26.459Z,9.85
2023-04-15T09:55:55.031Z,8.35
2023-04-15T09:58:24.220Z,9.30
2023-04-15T10:00:53.272Z,7.22
2023-04-15T10:03:26.572Z,12.75
2023-04-15T10:05:55.832Z,7.03
2023-04-15T10:08:27.854Z,13.57
2023-04-15T10:10:55.024Z,7.97
2023-04-15T10:13:24.405Z,7.88
2023-04-15T10:16:21.187Z,7.78
2023-04-15T10:18:53.454Z,12.52
2023-04-15T10:21:22.557Z,8.70
2023-04-15T10:23:50.060Z,9.27
2023-04-15T10:26:17.702Z,13.43
2023-04-15T10:28:47.183Z,10.02
2023-04-15T10:31:15.071Z,7.55
2023-04-15T10:33:43.342Z,12.73
2023-04-15T10:36:10.986Z,8.90
2023-04-15T10:38:42.468Z,8.63
2023-04-15T10:41:20.857Z,6.30
2023-04-15T10:43:52.772Z,8.38
2023-04-15T10:46:38.125Z,8.00
2023-04-15T10:49:16.418Z,9.60
2023-04-15T10:51:51.216Z,11.10
2023-04-15T10:54:26.619Z,10.40
2023-04-15T10:57:09.340Z,12.95
2023-04-15T10:59:37.592Z,11.90
2023-04-15T11:02:06.894Z,7.50
2023-04-15T11:04:53.403Z,9.45
2023-04-15T11:07:37.177Z,8.35
2023-04-15T11:10:25.505Z,6.57
2023-04-15T11:12:54.497Z,8.05
2023-04-15T11:15:45.148Z,15.02
2023-04-15T11:18:14.607Z,7.05
2023-04-15T11:20:44.904Z,6.47
2023-04-15T11:23:14.551Z,9.43
2023-04-15T11:25:42.824Z,6.47
2023-04-15T11:28:09.439Z,9.43
2023-04-15T11:30:37.520Z,8.82
2023-04-15T11:33:09.541Z,6.93
2023-04-15T11:35:36.362Z,5.28
2023-04-15T11:38:04.116Z,9.77
2023-04-15T11:40:31.576Z,10.35
2023-04-15T11:43:12.551Z,5.18
2023-04-15T11:46:01.365Z,7.78
2023-04-15T11:48:33.227Z,11.88
2023-04-15T11:51:04.558Z,9.93
2023-04-15T11:53:45.971Z,6.45
2023-04-15T11:56:21.091Z,7.85
2023-04-15T11:58:50.656Z,7.93
2023-04-15T12:01:17.178Z,7.03
2023-04-15T12:06:23.603Z,9.00
2023-04-15T12:08:58.305Z,10.60
2023-04-15T12:11:29.431Z,7.97
2023-04-15T12:13:58.697Z,15.93
2023-04-15T12:16:26.031Z,8.10
2023-04-15T12:18:55.923Z,16.27
2023-04-15T12:21:24.659Z,9.15
2023-04-15T12:23:52.902Z,8.00
2023-04-15T12:26:28.248Z,16.65
2023-04-15T12:29:02.176Z,9.95
2023-04-15T12:31:29.169Z,9.50
2023-04-15T12:33:57.020Z,9.27
2023-04-15T12:36:23.974Z,6.85
2023-04-15T12:38:50.732Z,7.60
2023-04-15T12:41:17.248Z,7.88
2023-04-15T12:46:16.219Z,7.15
2023-04-15T12:48:42.729Z,9.13
2023-04-15T12:51:09.706Z,9.85
2023-04-15T12:53:36.209Z,8.68
2023-04-15T12:58:29.407Z,8.30
2023-04-15T13:00:55.952Z,7.30
2023-04-15T13:03:22.498Z,4.80
2023-04-15T13:08:15.653Z,6.35
2023-04-15T13:10:43.388Z,10.15
2023-04-15T13:13:10.066Z,7.72
2023-04-15T13:15:36.993Z,8.30
2023-04-15T13:18:05.070Z,6.30
2023-04-15T13:20:31.858Z,9.63
2023-04-15T13:22:58.321Z,12.45
2023-04-15T13:27:52.420Z,10.43
2023-04-15T13:30:18.977Z,8.25
2023-04-15T13:35:12.244Z,6.90
2023-04-15T13:40:07.492Z,8.65
2023-04-15T13:42:34.213Z,9.93
2023-04-15T13:45:00.632Z,6.45
2023-04-15T13:47:27.461Z,7.15
2023-04-15T13:49:56.213Z,7.97
2023-04-15T13:52:23.451Z,8.40
2023-04-15T13:55:18.324Z,6.18
2023-04-15T13:57:36.946Z,4.30
2023-04-15T14:02:33.293Z,3.25
2023-04-15T14:04:59.819Z,4.05
2023-04-15T14:09:52.743Z,4.65
2023-04-15T14:14:45.840Z,5.78
2023-04-15T14:17:12.564Z,3.13
2023-04-15T14:19:39.099Z,9.07
2023-04-15T14:22:06.049Z,4.30
2023-04-15T14:24:32.588Z,9.52
2023-04-15T14:29:26.136Z,3.78
2023-04-15T14:32:03.863Z,8.77
2023-04-15T14:34:38.248Z,4.68
2023-04-15T14:39:31.621Z,3.53
2023-04-15T14:41:58.698Z,10.57
2023-04-15T14:44:25.294Z,5.75
2023-04-15T14:46:52.196Z,4.63
2023-04-15T14:49:18.730Z,4.22
2023-04-15T14:54:12.738Z,3.60
2023-04-15T14:59:06.140Z,5.30
2023-04-15T15:01:33.845Z,4.63
2023-04-15T15:04:00.668Z,4.80
2023-04-15T15:06:27.835Z,4.68
2023-04-15T15:08:54.364Z,7.15
2023-04-15T15:13:47.522Z,5.93
2023-04-15T15:16:14.723Z,5.88
2023-04-15T15:18:41.311Z,5.20
2023-04-15T15:23:34.188Z,4.80
2023-04-15T15:28:27.332Z,6.25
2023-04-15T15:33:20.874Z,6.40
2023-04-15T15:35:47.436Z,7.38
2023-04-15T15:40:40.309Z,5.28
2023-04-15T15:45:33.631Z,6.43
2023-04-15T15:48:01.721Z,7.55
2023-04-15T15:50:28.261Z,11.50
2023-04-15T15:52:55.422Z,6.95
2023-04-15T15:55:21.959Z,8.82
2023-04-15T15:57:48.580Z,5.38
2023-04-15T16:00:15.255Z,5.88
2023-04-15T16:05:12.654Z,12.13
2023-04-15T16:10:06.262Z,6.10
2023-04-15T16:12:35.015Z,8.88
2023-04-15T16:15:04.221Z,7.32
2023-04-15T16:17:30.881Z,5.55
2023-04-15T16:20:00.924Z,7.57
2023-04-15T16:22:27.790Z,7.78
2023-04-15T16:24:54.423Z,12.93
2023-04-15T16:27:20.886Z,6.78
2023-04-15T16:32:13.782Z,9.07
2023-04-15T16:34:41.304Z,6.97
2023-04-15T16:37:08.096Z,6.32
2023-04-15T16:39:34.602Z,6.82
2023-04-15T16:44:29.186Z,11.02
2023-04-15T16:46:56.326Z,8.52
2023-04-15T16:49:22.806Z,9.88
2023-04-15T16:54:15.647Z,9.63
2023-04-15T16:59:08.475Z,8.90
2023-04-15T17:01:35.099Z,5.40
2023-04-15T17:06:28.449Z,10.70
2023-04-15T17:08:54.995Z,5.25
2023-04-15T17:13:48.993Z,7.03
2023-04-15T17:16:15.666Z,4.80
2023-04-15T17:18:42.195Z,4.93
2023-04-15T17:23:35.409Z,5.65
2023-04-15T17:26:02.050Z,4.63
2023-04-15T17:28:28.647Z,4.97
2023-04-15T17:30:55.294Z,5.03
2023-04-15T17:33:57.393Z,5.63
2023-04-15T17:36:08.769Z,6.67
2023-04-15T17:38:35.260Z,6.60
2023-04-15T17:43:29.177Z,5.55
2023-04-15T17:48:28.084Z,11.52
2023-04-15T17:50:54.556Z,9.98
2023-04-15T17:55:47.390Z,8.30
2023-04-15T18:00:40.338Z,11.45
2023-04-15T18:05:33.722Z,6.80
2023-04-15T18:08:00.175Z,6.05
2023-04-15T18:12:53.036Z,5.32
2023-04-15T18:17:46.210Z,7.88
2023-04-15T18:20:12.946Z,11.90
2023-04-15T18:22:39.962Z,23.85
2023-04-15T18:25:07.029Z,23.02
2023-04-15T18:27:34.307Z,22.58
2023-04-15T18:30:00.871Z,17.88
2023-04-15T18:32:31.680Z,20.92
2023-04-15T18:34:58.565Z,20.20
2023-04-15T18:37:26.751Z,23.95
2023-04-15T18:39:54.127Z,11.20
2023-04-15T18:42:21.066Z,6.63
2023-04-15T18:44:47.626Z,8.05
2023-04-15T18:49:41.684Z,6.88
2023-04-15T18:52:09.704Z,7.65
2023-04-15T18:54:36.614Z,8.73
2023-04-15T18:57:06.378Z,6.80
2023-04-15T18:59:33.673Z,10.30
2023-04-15T19:02:01.149Z,7.22
2023-04-15T19:04:29.379Z,7.47
2023-04-15T19:06:56.266Z,5.43
2023-04-15T19:09:22.730Z,7.15
2023-04-15T19:14:15.699Z,10.40
2023-04-15T19:19:08.724Z,8.00
2023-04-15T19:24:02.545Z,7.47
2023-04-15T19:26:29.377Z,9.90
2023-04-15T19:28:58.750Z,7.45
2023-04-15T19:31:26.141Z,8.57
2023-04-15T19:33:52.819Z,6.68
2023-04-15T19:36:19.349Z,5.88
2023-04-15T19:41:12.169Z,7.18
2023-04-15T19:46:06.234Z,6.00
2023-04-15T19:48:32.949Z,5.82
2023-04-15T19:51:00.537Z,6.00
2023-04-15T19:53:27.031Z,6.38
2023-04-15T19:58:19.940Z,5.53
2023-04-15T20:03:12.910Z,5.25
2023-04-15T20:05:39.608Z,7.55
2023-04-15T20:08:06.251Z,5.13
2023-04-15T20:10:32.745Z,5.05
2023-04-15T20:15:25.988Z,4.45
2023-04-15T20:17:52.554Z,6.75
2023-04-15T20:22:45.797Z,4.80
2023-04-15T20:27:38.800Z,8.00
2023-04-15T20:30:06.248Z,5.90
2023-04-15T20:32:35.697Z,6.03
2023-04-15T20:35:03.332Z,6.57
2023-04-15T20:37:30.855Z,7.00
2023-04-15T20:39:57.382Z,7.45
2023-04-15T20:44:50.496Z,6.32
2023-04-15T20:47:17.238Z,9.38
2023-04-15T20:49:43.781Z,6.68
2023-04-15T20:54:37.193Z,6.35
2023-04-15T20:59:30.448Z,6.88
2023-04-15T21:01:57.452Z,6.57
2023-04-15T21:04:25.493Z,6.03
2023-04-15T21:06:52.327Z,8.55
2023-04-15T21:09:19.056Z,6.15
2023-04-15T21:12:00.288Z,4.82
2023-04-15T21:14:27.897Z,4.28
2023-04-15T21:19:20.921Z,5.20
2023-04-15T21:21:47.423Z,5.65
2023-04-15T21:26:40.671Z,5.60
2023-04-15T21:29:09.449Z,5.03
2023-04-15T21:31:37.827Z,5.82
2023-04-15T21:34:04.372Z,5.03
2023-04-15T21:38:58.127Z,5.20
2023-04-15T21:43:50.984Z,5.60
2023-04-15T21:48:53.539Z,5.15
2023-04-15T21:51:20.359Z,6.15
2023-04-15T21:53:46.949Z,5.13
2023-04-15T21:56:13.453Z,5.35
2023-04-15T22:17:22.984Z,9.43
2023-04-15T22:19:49.686Z,8.52
2023-04-15T22:22:16.616Z,7.25
2023-04-15T22:24:43.123Z,7.80
2023-04-15T22:29:36.222Z,8.02
2023-04-15T22:32:03.138Z,7.65
2023-04-15T22:34:29.704Z,7.90
2023-04-15T22:39:22.818Z,9.90
2023-04-15T22:41:49.653Z,7.10
2023-04-15T22:44:16.192Z,6.00
2023-04-15T22:49:09.784Z,7.22
2023-04-15T22:51:37.122Z,6.65
2023-04-15T22:54:03.804Z,6.43
2023-04-15T22:56:30.475Z,7.95
2023-04-15T22:58:57.002Z,6.53
2023-04-15T23:03:57.383Z,14.30
2023-04-15T23:06:30.573Z,9.48
2023-04-15T23:11:23.598Z,8.80
2023-04-15T23:13:50.689Z,6.75
2023-04-15T23:16:17.300Z,7.85
2023-04-15T23:18:43.959Z,8.18
2023-04-15T23:21:10.479Z,7.93
2023-04-15T23:26:04.283Z,8.05
2023-04-15T23:28:31.069Z,12.77
2023-04-15T23:31:00.304Z,7.50
2023-04-15T23:33:27.383Z,8.88
2023-04-15T23:35:54.107Z,10.35
2023-04-15T23:38:23.441Z,14.63
2023-04-15T23:40:51.176Z,9.63
2023-04-15T23:43:17.756Z,8.88
2023-04-15T23:45:44.395Z,8.05
2023-04-15T23:48:10.966Z,9.88
2023-04-15T23:50:37.812Z,9.80
2023-04-15T23:53:04.325Z,10.88
2023-04-15T23:57:57.785Z,7.82
